createdAt,value
2016-04-26T00:00:14.388Z,2.92
2016-04-26T00:01:14.719Z,2.91
2016-04-26T00:02:14.300Z,2.82
2016-04-26T00:03:14.145Z,2.87
2016-04-26T00:04:14.258Z,2.82
2016-04-26T00:05:14.245Z,2.79
2016-04-26T00:06:14.205Z,2.84
2016-04-26T00:07:14.160Z,2.87
2016-04-26T00:08:14.132Z,2.88
2016-04-26T00:09:14.103Z,2.87
2016-04-26T00:10:14.075Z,2.84
2016-04-26T00:11:14.046Z,2.84
2016-04-26T00:12:14.017Z,2.87
2016-04-26T00:13:13.989Z,2.89
2016-04-26T00:14:13.945Z,2.85
2016-04-26T00:15:13.917Z,2.87
2016-04-26T00:16:13.747Z,2.76
2016-04-26T00:17:13.984Z,2.76
2016-04-26T00:18:13.831Z,2.81
2016-04-26T00:19:13.803Z,2.7
2016-04-26T00:20:13.773Z,2.76
2016-04-26T00:21:13.745Z,2.73
2016-04-26T00:22:13.700Z,2.84
2016-04-26T00:23:13.688Z,2.82
2016-04-26T00:24:13.675Z,2.87
2016-04-26T00:25:13.616Z,2.85
2016-04-26T00:26:13.586Z,2.79
2016-04-26T00:27:13.558Z,2.91
2016-04-26T00:28:13.514Z,2.84
2016-04-26T00:29:13.501Z,2.84
2016-04-26T00:30:13.457Z,2.82
2016-04-26T00:31:13.944Z,2.85
2016-04-26T00:32:13.260Z,2.91
2016-04-26T00:33:13.371Z,2.85
2016-04-26T00:34:13.343Z,2.88
2016-04-26T00:35:13.313Z,2.91
2016-04-26T00:36:13.301Z,2.87
2016-04-26T00:37:13.257Z,2.89
2016-04-26T00:38:13.244Z,2.69
2016-04-26T00:39:13.199Z,2.77
2016-04-26T00:40:13.171Z,2.71
2016-04-26T00:41:13.127Z,2.73
2016-04-26T00:42:13.098Z,2.71
2016-04-26T00:43:13.085Z,2.63
2016-04-26T00:44:13.041Z,2.64
2016-04-26T00:45:13.012Z,2.67
2016-04-26T00:46:12.984Z,2.69
2016-04-26T00:47:12.658Z,2.56
2016-04-26T00:48:12.912Z,2.61
2016-04-26T00:49:12.883Z,2.56
2016-04-26T00:50:12.853Z,2.55
2016-04-26T00:51:12.826Z,2.51
2016-04-26T00:52:12.781Z,2.49
2016-04-26T00:53:12.784Z,2.55
2016-04-26T00:54:12.725Z,2.46
2016-04-26T00:55:12.696Z,2.44
2016-04-26T00:56:12.667Z,2.53
2016-04-26T00:57:12.638Z,2.45
2016-04-26T00:58:12.610Z,2.46
2016-04-26T00:59:12.566Z,2.45
2016-04-26T01:00:12.553Z,2.33
2016-04-26T01:01:13.258Z,2.4
2016-04-26T01:02:12.746Z,2.22
2016-04-26T01:03:12.451Z,2.35
2016-04-26T01:04:12.424Z,2.22
2016-04-26T01:05:12.395Z,2.23
2016-04-26T01:06:12.366Z,2.26
2016-04-26T01:07:12.354Z,2.2
2016-04-26T01:08:12.293Z,2.19
2016-04-26T01:09:12.265Z,2.16
2016-04-26T01:10:12.236Z,2.23
2016-04-26T01:11:12.208Z,2.16
2016-04-26T01:12:12.179Z,2.15
2016-04-26T01:13:12.150Z,2.17
2016-04-26T01:14:12.107Z,2.08
2016-04-26T01:15:12.078Z,2.1
2016-04-26T01:16:12.034Z,2.09
2016-04-26T01:17:12.490Z,2.13
2016-04-26T01:18:11.976Z,2.1
2016-04-26T01:19:11.948Z,2.06
2016-04-26T01:20:11.920Z,2.02
2016-04-26T01:21:11.906Z,1.98
2016-04-26T01:22:11.861Z,1.97
2016-04-26T01:23:11.834Z,1.93
2016-04-26T01:24:11.789Z,1.93
2016-04-26T01:25:11.761Z,1.94
2016-04-26T01:26:11.733Z,1.87
2016-04-26T01:27:11.703Z,1.94
2016-04-26T01:28:11.691Z,1.87
2016-04-26T01:29:11.647Z,1.9
2016-04-26T01:30:11.619Z,1.93
2016-04-26T01:31:11.433Z,1.78
2016-04-26T01:32:11.467Z,1.73
2016-04-26T01:33:11.516Z,1.73
2016-04-26T01:34:11.488Z,1.78
2016-04-26T01:35:11.460Z,1.72
2016-04-26T01:36:11.432Z,1.73
2016-04-26T01:37:11.387Z,1.78
2016-04-26T01:38:11.358Z,1.69
2016-04-26T01:39:11.315Z,1.73
2016-04-26T01:40:11.286Z,1.69
2016-04-26T01:41:11.257Z,1.68
2016-04-26T01:42:11.259Z,1.68
2016-04-26T01:43:11.201Z,1.68
2016-04-26T01:44:11.171Z,1.73
2016-04-26T01:45:11.143Z,1.68
2016-04-26T01:46:11.270Z,1.69
2016-04-26T01:47:13.446Z,1.57
2016-04-26T01:48:11.042Z,1.68
2016-04-26T01:49:11.028Z,1.55
2016-04-26T01:50:10.984Z,1.61
2016-04-26T01:51:10.956Z,1.54
2016-04-26T01:52:10.911Z,1.54
2016-04-26T01:53:10.899Z,1.61
2016-04-26T01:54:10.855Z,1.58
2016-04-26T01:55:10.825Z,1.55
2016-04-26T01:56:10.798Z,1.58
2016-04-26T01:57:10.753Z,1.58
2016-04-26T01:58:10.724Z,1.61
2016-04-26T01:59:10.712Z,1.65
2016-04-26T02:00:10.667Z,1.62
2016-04-26T02:01:10.624Z,1.58
2016-04-26T02:02:10.611Z,1.58
2016-04-26T02:03:10.582Z,1.57
2016-04-26T02:04:10.538Z,1.57
2016-04-26T02:05:10.510Z,1.58
2016-04-26T02:06:10.480Z,1.54
2016-04-26T02:07:10.437Z,1.46
2016-04-26T02:08:10.424Z,1.52
2016-04-26T02:09:10.395Z,1.46
2016-04-26T02:10:10.352Z,1.46
2016-04-26T02:11:10.322Z,1.44
2016-04-26T02:12:10.278Z,1.44
2016-04-26T02:13:10.249Z,1.46
2016-04-26T02:14:10.221Z,1.47
2016-04-26T02:15:10.207Z,1.44
2016-04-26T02:16:10.164Z,1.43
2016-04-26T02:17:09.995Z,1.4
2016-04-26T02:18:10.107Z,1.43
2016-04-26T02:19:10.062Z,1.42
2016-04-26T02:20:10.034Z,1.4
2016-04-26T02:21:10.006Z,1.47
2016-04-26T02:22:09.992Z,1.46
2016-04-26T02:23:09.939Z,1.44
2016-04-26T02:24:09.911Z,1.46
2016-04-26T02:25:09.883Z,1.4
2016-04-26T02:26:09.838Z,1.33
2016-04-26T02:27:09.825Z,1.33
2016-04-26T02:28:09.797Z,1.36
2016-04-26T02:29:09.752Z,1.39
2016-04-26T02:30:09.724Z,1.4
2016-04-26T02:31:09.679Z,1.47
2016-04-26T02:32:11.089Z,1.4
2016-04-26T02:33:09.638Z,1.42
2016-04-26T02:34:09.593Z,1.43
2016-04-26T02:35:09.565Z,1.46
2016-04-26T02:36:09.521Z,1.42
2016-04-26T02:37:09.493Z,1.5
2016-04-26T02:38:09.464Z,1.54
2016-04-26T02:39:09.437Z,1.55
2016-04-26T02:40:09.407Z,1.62
2016-04-26T02:41:09.379Z,1.58
2016-04-26T02:42:09.350Z,1.64
2016-04-26T02:43:09.305Z,1.68
2016-04-26T02:44:09.278Z,1.68
2016-04-26T02:45:09.249Z,1.68
2016-04-26T02:46:09.220Z,1.75
2016-04-26T02:47:09.128Z,1.71
2016-04-26T02:48:09.148Z,1.75
2016-04-26T02:49:09.119Z,1.71
2016-04-26T02:50:09.105Z,1.78
2016-04-26T02:51:09.061Z,1.73
2016-04-26T02:52:09.018Z,1.75
2016-04-26T02:53:09.005Z,1.73
2016-04-26T02:54:08.976Z,1.72
2016-04-26T02:55:08.933Z,1.71
2016-04-26T02:56:08.902Z,1.76
2016-04-26T02:57:08.860Z,1.78
2016-04-26T02:58:08.830Z,1.73
2016-04-26T02:59:08.802Z,1.71
2016-04-26T03:00:08.789Z,1.78
2016-04-26T03:01:08.730Z,1.65
2016-04-26T03:02:08.591Z,1.62
2016-04-26T03:03:08.687Z,1.62
2016-04-26T03:04:08.644Z,1.75
2016-04-26T03:05:08.615Z,1.65
2016-04-26T03:06:08.571Z,1.72
2016-04-26T03:07:08.557Z,1.68
2016-04-26T03:08:08.514Z,1.62
2016-04-26T03:09:08.501Z,1.68
2016-04-26T03:10:08.456Z,1.61
2016-04-26T03:11:08.428Z,1.64
2016-04-26T03:12:08.384Z,1.54
2016-04-26T03:13:08.199Z,1.65
2016-04-26T03:14:08.326Z,1.69
2016-04-26T03:15:08.298Z,1.64
2016-04-26T03:16:08.269Z,1.64
2016-04-26T03:17:08.258Z,1.57
2016-04-26T03:18:08.198Z,1.61
2016-04-26T03:19:08.170Z,1.57
2016-04-26T03:20:08.140Z,1.58
2016-04-26T03:21:08.112Z,1.62
2016-04-26T03:22:08.084Z,1.64
2016-04-26T03:23:08.039Z,1.61
2016-04-26T03:24:08.042Z,1.54
2016-04-26T03:25:07.982Z,1.58
2016-04-26T03:26:07.954Z,1.57
2016-04-26T03:27:07.909Z,1.61
2016-04-26T03:28:07.881Z,1.61
2016-04-26T03:29:07.853Z,1.58
2016-04-26T03:30:07.824Z,1.55
2016-04-26T03:31:07.795Z,1.64
2016-04-26T03:32:07.595Z,1.61
2016-04-26T03:33:07.722Z,1.51
2016-04-26T03:34:07.694Z,1.5
2016-04-26T03:35:07.666Z,1.47
2016-04-26T03:36:07.636Z,1.54
2016-04-26T03:37:07.608Z,1.51
2016-04-26T03:38:07.580Z,1.51
2016-04-26T03:39:07.536Z,1.54
2016-04-26T03:40:07.522Z,1.54
2016-04-26T03:41:07.463Z,1.51
2016-04-26T03:42:07.435Z,1.54
2016-04-26T03:43:07.405Z,1.51
2016-04-26T03:44:07.377Z,1.47
2016-04-26T03:45:07.332Z,1.55
2016-04-26T03:46:07.321Z,1.6
2016-04-26T03:47:07.870Z,1.54
2016-04-26T03:48:07.247Z,1.57
2016-04-26T03:49:07.219Z,1.62
2016-04-26T03:50:07.174Z,1.62
2016-04-26T03:51:07.162Z,1.55
2016-04-26T03:52:07.118Z,1.61
2016-04-26T03:53:07.104Z,1.65
2016-04-26T03:54:07.060Z,1.61
2016-04-26T03:55:07.047Z,1.68
2016-04-26T03:56:06.987Z,1.55
2016-04-26T03:57:06.959Z,1.55
2016-04-26T03:58:06.930Z,1.51
2016-04-26T03:59:06.903Z,1.57
2016-04-26T04:00:06.873Z,1.6
2016-04-26T04:01:06.688Z,1.69
2016-04-26T04:02:06.645Z,1.65
2016-04-26T04:03:06.772Z,1.68
2016-04-26T04:04:06.743Z,1.68
2016-04-26T04:05:06.715Z,1.68
2016-04-26T04:06:06.671Z,1.65
2016-04-26T04:07:06.642Z,1.68
2016-04-26T04:08:06.614Z,1.72
2016-04-26T04:09:06.569Z,1.68
2016-04-26T04:10:06.535Z,1.62
2016-04-26T04:11:06.522Z,1.68
2016-04-26T04:12:06.478Z,1.72
2016-04-26T04:13:06.449Z,1.71
2016-04-26T04:14:06.437Z,1.71
2016-04-26T04:15:06.407Z,1.71
2016-04-26T04:16:06.364Z,1.71
2016-04-26T04:17:06.179Z,1.69
2016-04-26T04:18:06.290Z,1.68
2016-04-26T04:19:06.262Z,1.69
2016-04-26T04:20:06.234Z,1.73
2016-04-26T04:21:06.205Z,1.73
2016-04-26T04:22:06.161Z,1.72
2016-04-26T04:23:06.133Z,1.68
2016-04-26T04:24:06.120Z,1.71
2016-04-26T04:25:06.075Z,1.75
2016-04-26T04:26:06.047Z,1.87
2016-04-26T04:27:06.019Z,1.91
2016-04-26T04:28:05.974Z,1.79
2016-04-26T04:29:05.945Z,1.9
2016-04-26T04:30:05.932Z,1.93
2016-04-26T04:31:05.889Z,2.01
2016-04-26T04:32:06.986Z,1.99
2016-04-26T04:33:07.925Z,2.12
2016-04-26T04:34:05.788Z,2.19
2016-04-26T04:35:05.758Z,2.23
2016-04-26T04:36:05.714Z,2.23
2016-04-26T04:37:05.701Z,2.34
2016-04-26T04:38:05.657Z,2.44
2016-04-26T04:39:05.629Z,2.46
2016-04-26T04:40:05.600Z,2.45
2016-04-26T04:41:05.571Z,2.41
2016-04-26T04:42:05.527Z,2.41
2016-04-26T04:43:05.515Z,2.52
2016-04-26T04:44:05.485Z,2.46
2016-04-26T04:45:05.442Z,2.58
2016-04-26T04:46:05.413Z,2.55
2016-04-26T04:47:06.384Z,2.58
2016-04-26T04:48:05.340Z,2.74
2016-04-26T04:49:05.312Z,2.74
2016-04-26T04:50:05.283Z,2.76
2016-04-26T04:51:05.254Z,2.73
2016-04-26T04:52:05.226Z,2.74
2016-04-26T04:53:05.181Z,2.77
2016-04-26T04:54:05.153Z,2.69
2016-04-26T04:55:05.125Z,2.73
2016-04-26T04:56:05.096Z,2.82
2016-04-26T04:57:05.083Z,2.85
2016-04-26T04:58:05.055Z,2.85
2016-04-26T04:59:05.026Z,3
2016-04-26T05:00:04.966Z,3.05
2016-04-26T05:01:04.938Z,3.15
2016-04-26T05:02:04.753Z,3.1
2016-04-26T05:03:04.724Z,3.16
2016-04-26T05:04:04.852Z,3.23
2016-04-26T05:05:04.824Z,3.23
2016-04-26T05:06:04.810Z,3.31
2016-04-26T05:07:04.752Z,3.34
2016-04-26T05:08:04.721Z,3.49
2016-04-26T05:09:04.710Z,3.54
2016-04-26T05:10:04.666Z,3.58
2016-04-26T05:11:04.637Z,3.64
2016-04-26T05:12:04.608Z,3.6
2016-04-26T05:13:04.579Z,3.7
2016-04-26T05:14:04.551Z,3.71
2016-04-26T05:15:04.507Z,3.7
2016-04-26T05:16:04.478Z,3.72
2016-04-26T05:17:05.512Z,3.67
2016-04-26T05:18:04.420Z,3.72
2016-04-26T05:19:04.409Z,3.75
2016-04-26T05:20:04.365Z,3.68
2016-04-26T05:21:04.335Z,3.76
2016-04-26T05:22:04.307Z,3.62
2016-04-26T05:23:04.278Z,3.67
2016-04-26T05:24:04.250Z,3.72
2016-04-26T05:25:04.221Z,3.72
2016-04-26T05:26:04.192Z,3.75
2016-04-26T05:27:04.148Z,3.76
2016-04-26T05:28:04.120Z,3.72
2016-04-26T05:29:04.123Z,3.83
2016-04-26T05:30:04.063Z,3.83
2016-04-26T05:31:04.034Z,3.88
2016-04-26T05:32:04.178Z,4.03
2016-04-26T05:33:04.680Z,4.04
2016-04-26T05:34:03.949Z,4.14
2016-04-26T05:35:03.920Z,4.24
2016-04-26T05:36:03.891Z,4.33
2016-04-26T05:37:03.863Z,4.32
2016-04-26T05:38:03.818Z,4.39
2016-04-26T05:39:03.790Z,4.42
2016-04-26T05:40:03.761Z,4.34
2016-04-26T05:41:03.748Z,4.33
2016-04-26T05:42:03.735Z,4.36
2016-04-26T05:43:03.676Z,4.4
2016-04-26T05:44:03.663Z,4.39
2016-04-26T05:45:03.618Z,4.42
2016-04-26T05:46:03.590Z,4.4
2016-04-26T05:47:03.561Z,4.47
2016-04-26T05:48:03.689Z,4.36
2016-04-26T05:49:03.504Z,4.37
2016-04-26T05:50:03.445Z,4.33
2016-04-26T05:51:03.448Z,4.33
2016-04-26T05:52:03.418Z,4.39
2016-04-26T05:53:03.390Z,4.5
2016-04-26T05:54:03.393Z,4.5
2016-04-26T05:55:03.442Z,4.57
2016-04-26T05:56:03.304Z,4.54
2016-04-26T05:57:03.264Z,4.55
2016-04-26T05:58:03.490Z,4.42
2016-04-26T05:59:03.259Z,4.43
2016-04-26T06:00:03.199Z,4.59
2016-04-26T06:01:03.826Z,4.46
2016-04-26T06:02:04.042Z,4.55
2016-04-26T06:03:03.107Z,4.59
2016-04-26T06:04:03.063Z,4.75
2016-04-26T06:05:03.036Z,4.91
2016-04-26T06:06:03.053Z,5.1
2016-04-26T06:07:02.978Z,5.3
2016-04-26T06:08:02.949Z,5.35
2016-04-26T06:09:02.921Z,5.32
2016-04-26T06:10:02.891Z,5.37
2016-04-26T06:11:02.863Z,5.32
2016-04-26T06:12:02.835Z,5.31
2016-04-26T06:13:02.649Z,5.05
2016-04-26T06:14:02.793Z,5.01
2016-04-26T06:15:02.749Z,5.07
2016-04-26T06:16:02.721Z,5.02
2016-04-26T06:17:03.114Z,4.98
2016-04-26T06:18:02.585Z,5.05
2016-04-26T06:19:02.635Z,5.01
2016-04-26T06:20:02.465Z,4.92
2016-04-26T06:21:02.578Z,4.91
2016-04-26T06:22:02.565Z,4.91
2016-04-26T06:23:02.524Z,4.72
2016-04-26T06:24:02.496Z,4.72
2016-04-26T06:25:02.466Z,4.62
2016-04-26T06:26:02.438Z,4.42
2016-04-26T06:27:02.409Z,4.22
2016-04-26T06:28:02.271Z,4.08
2016-04-26T06:29:04.259Z,4.1
2016-04-26T06:30:02.340Z,4
2016-04-26T06:31:02.312Z,3.85
2016-04-26T06:32:02.251Z,3.78
2016-04-26T06:33:02.317Z,3.83
2016-04-26T06:34:02.209Z,3.75
2016-04-26T06:35:02.181Z,3.71
2016-04-26T06:36:02.153Z,3.75
2016-04-26T06:37:02.123Z,3.78
2016-04-26T06:38:02.080Z,3.72
2016-04-26T06:39:02.050Z,3.72
2016-04-26T06:40:02.039Z,3.7
2016-04-26T06:41:01.994Z,3.76
2016-04-26T06:42:01.980Z,3.68
2016-04-26T06:43:01.937Z,3.72
2016-04-26T06:44:01.752Z,3.78
2016-04-26T06:45:01.880Z,3.86
2016-04-26T06:46:01.852Z,4.08
2016-04-26T06:47:01.885Z,4.08
2016-04-26T06:48:02.966Z,4.33
2016-04-26T06:49:01.765Z,4.58
2016-04-26T06:50:01.737Z,4.62
2016-04-26T06:51:01.708Z,4.43
2016-04-26T06:52:01.663Z,4.39
2016-04-26T06:53:01.635Z,4.21
2016-04-26T06:54:01.623Z,4.14
2016-04-26T06:55:01.579Z,4.04
2016-04-26T06:56:01.565Z,4.1
2016-04-26T06:57:01.537Z,4.03
2016-04-26T06:58:01.492Z,3.97
2016-04-26T06:59:01.464Z,3.88
2016-04-26T07:00:01.435Z,3.85
2016-04-26T07:01:01.422Z,3.8
2016-04-26T07:02:01.394Z,3.83
2016-04-26T07:03:01.303Z,3.7
2016-04-26T07:04:01.321Z,3.58
2016-04-26T07:05:01.278Z,3.4
2016-04-26T07:06:01.265Z,3.1
2016-04-26T07:07:01.220Z,2.92
2016-04-26T07:08:01.207Z,2.89
2016-04-26T07:09:01.164Z,2.82
2016-04-26T07:10:01.150Z,2.88
2016-04-26T07:11:01.122Z,2.88
2016-04-26T07:12:01.077Z,2.89
2016-04-26T07:13:01.049Z,3.05
2016-04-26T07:14:01.036Z,3.09
2016-04-26T07:15:00.992Z,3.1
2016-04-26T07:16:00.807Z,3.18
2016-04-26T07:17:00.935Z,3.24
2016-04-26T07:18:00.813Z,3.31
2016-04-26T07:19:00.878Z,3.4
2016-04-26T07:20:00.849Z,3.53
2016-04-26T07:21:00.805Z,3.64
2016-04-26T07:22:00.776Z,3.72
2016-04-26T07:23:00.752Z,3.75
2016-04-26T07:24:00.723Z,3.76
2016-04-26T07:25:00.679Z,3.78
2016-04-26T07:26:00.651Z,3.83
2016-04-26T07:27:00.623Z,3.78
2016-04-26T07:28:00.610Z,3.76
2016-04-26T07:29:00.581Z,3.83
2016-04-26T07:30:00.537Z,3.8
2016-04-26T07:31:00.523Z,3.71
2016-04-26T07:32:00.479Z,3.67
2016-04-26T07:33:01.123Z,3.67
2016-04-26T07:34:00.422Z,3.71
2016-04-26T07:35:00.395Z,3.65
2016-04-26T07:36:00.364Z,3.68
2016-04-26T07:37:00.367Z,3.6
2016-04-26T07:38:00.309Z,3.65
2016-04-26T07:39:00.280Z,3.78
2016-04-26T07:40:00.251Z,3.72
2016-04-26T07:41:00.207Z,3.68
2016-04-26T07:42:00.225Z,3.76
2016-04-26T07:43:00.150Z,4
2016-04-26T07:44:00.121Z,3.94
2016-04-26T07:45:00.093Z,4.04
2016-04-26T07:46:00.938Z,4
2016-04-26T07:47:00.020Z,4.1
2016-04-26T07:47:59.991Z,4.01
2016-04-26T07:48:59.963Z,4.24
2016-04-26T07:49:59.935Z,4.34
2016-04-26T07:50:59.905Z,4.29
2016-04-26T07:51:59.877Z,4.25
2016-04-26T07:52:59.865Z,4.26
2016-04-26T07:53:59.820Z,4.15
2016-04-26T07:54:59.651Z,4.14
2016-04-26T07:55:59.762Z,4.19
2016-04-26T07:56:59.751Z,4.14
2016-04-26T07:57:59.707Z,4.15
2016-04-26T07:58:59.662Z,4.08
2016-04-26T07:59:59.649Z,4.16
2016-04-26T08:00:59.604Z,4.1
2016-04-26T08:01:59.575Z,4.22
2016-04-26T08:02:59.610Z,4.32
2016-04-26T08:03:59.519Z,4.55
2016-04-26T08:04:59.490Z,4.57
2016-04-26T08:05:59.477Z,4.62
2016-04-26T08:06:59.433Z,4.76
2016-04-26T08:07:59.436Z,4.84
2016-04-26T08:08:59.376Z,4.98
2016-04-26T08:09:59.364Z,5.19
2016-04-26T08:10:59.319Z,5.32
2016-04-26T08:11:59.291Z,5.4
2016-04-26T08:12:59.278Z,5.59
2016-04-26T08:13:59.249Z,5.67
2016-04-26T08:14:59.236Z,5.64
2016-04-26T08:15:59.176Z,5.5
2016-04-26T08:16:59.163Z,5.35
2016-04-26T08:17:59.182Z,5.38
2016-04-26T08:18:59.169Z,5.31
2016-04-26T08:19:59.078Z,5.23
2016-04-26T08:20:59.033Z,5.2
2016-04-26T08:21:59.036Z,5.1
2016-04-26T08:22:58.977Z,5.05
2016-04-26T08:23:58.682Z,5.05
2016-04-26T08:24:58.919Z,5.07
2016-04-26T08:25:58.906Z,5.16
2016-04-26T08:26:58.877Z,5.17
2016-04-26T08:27:58.849Z,5.12
2016-04-26T08:28:58.827Z,5.1
2016-04-26T08:29:58.786Z,5.05
2016-04-26T08:30:58.799Z,5.19
2016-04-26T08:31:58.812Z,5.1
2016-04-26T08:32:59.591Z,5.1
2016-04-26T08:33:58.995Z,5.19
2016-04-26T08:34:58.866Z,5.25
2016-04-26T08:35:58.836Z,5.53
2016-04-26T08:36:58.823Z,5.68
2016-04-26T08:37:58.826Z,6.73
2016-04-26T08:38:58.797Z,7.32
2016-04-26T08:39:58.781Z,8.08
2016-04-26T08:40:58.775Z,8.51
2016-04-26T08:41:58.752Z,8.35
2016-04-26T08:42:58.743Z,8.69
2016-04-26T08:43:58.705Z,8.66
2016-04-26T08:44:58.713Z,8.66
2016-04-26T08:45:58.670Z,8.75
2016-04-26T08:46:58.643Z,8.45
2016-04-26T08:48:00.320Z,8.02
2016-04-26T08:48:59.059Z,7.89
2016-04-26T08:49:58.580Z,7.77
2016-04-26T08:50:58.536Z,7.9
2016-04-26T08:51:58.523Z,7.69
2016-04-26T08:52:58.496Z,7.35
2016-04-26T08:53:58.469Z,7.23
2016-04-26T08:54:58.456Z,7.42
2016-04-26T08:55:58.428Z,7.34
2016-04-26T08:56:58.400Z,7.52
2016-04-26T08:57:58.372Z,7.66
2016-04-26T08:58:58.344Z,7.58
2016-04-26T08:59:58.315Z,7.6
2016-04-26T09:00:58.287Z,7.41
2016-04-26T09:01:58.273Z,7.35
2016-04-26T09:03:00.090Z,7.32
2016-04-26T09:03:59.185Z,7.55
2016-04-26T09:04:58.203Z,7.53
2016-04-26T09:05:58.160Z,7.45
2016-04-26T09:06:58.146Z,7.13
2016-04-26T09:07:58.134Z,7.05
2016-04-26T09:08:58.089Z,7.01
2016-04-26T09:09:58.061Z,7.16
2016-04-26T09:10:58.032Z,7.45
2016-04-26T09:11:58.020Z,7.13
2016-04-26T09:12:57.975Z,7.05
2016-04-26T09:13:57.962Z,7.04
2016-04-26T09:14:57.949Z,7.05
2016-04-26T09:15:57.905Z,7.34
2016-04-26T09:16:57.877Z,7.45
2016-04-26T09:17:57.864Z,7.6
2016-04-26T09:18:57.819Z,7.53
2016-04-26T09:19:57.806Z,7.67
2016-04-26T09:20:57.778Z,7.77
2016-04-26T09:21:58.187Z,8.08
2016-04-26T09:22:57.752Z,8.1
2016-04-26T09:23:57.691Z,8.1
2016-04-26T09:24:57.664Z,8.25
2016-04-26T09:25:57.651Z,8.26
2016-04-26T09:26:57.622Z,8.37
2016-04-26T09:27:57.610Z,8.5
2016-04-26T09:28:57.580Z,8.35
2016-04-26T09:29:57.552Z,8.42
2016-04-26T09:30:58.304Z,8.36
2016-04-26T09:31:57.495Z,8.5
2016-04-26T09:32:57.466Z,8.75
2016-04-26T09:33:57.454Z,8.86
2016-04-26T09:34:57.425Z,9.12
2016-04-26T09:35:57.409Z,9.13
2016-04-26T09:36:57.382Z,8.9
2016-04-26T09:37:57.337Z,8.73
2016-04-26T09:38:57.495Z,8.69
2016-04-26T09:39:57.295Z,8.2
2016-04-26T09:40:57.282Z,8.15
2016-04-26T09:41:57.254Z,7.89
2016-04-26T09:42:57.256Z,7.74
2016-04-26T09:43:57.197Z,7.47
2016-04-26T09:44:57.168Z,7.29
2016-04-26T09:45:57.155Z,7.32
2016-04-26T09:46:57.126Z,7.19
2016-04-26T09:47:57.191Z,7.27
2016-04-26T09:48:57.475Z,7.38
2016-04-26T09:49:57.041Z,7.31
2016-04-26T09:50:57.028Z,7.42
2016-04-26T09:51:57.000Z,7.52
2016-04-26T09:52:56.955Z,7.59
2016-04-26T09:53:56.942Z,7.34
2016-04-26T09:54:56.914Z,7.27
2016-04-26T09:55:56.901Z,7.07
2016-04-26T09:56:56.887Z,6.87
2016-04-26T09:57:56.859Z,6.95
2016-04-26T09:58:56.830Z,6.77
2016-04-26T09:59:56.802Z,6.68
2016-04-26T10:00:56.774Z,6.83
2016-04-26T10:01:56.729Z,6.66
2016-04-26T10:02:56.935Z,6.66
2016-04-26T10:03:56.672Z,6.63
2016-04-26T10:04:56.643Z,6.62
2016-04-26T10:05:56.646Z,6.51
2016-04-26T10:06:56.602Z,6.36
2016-04-26T10:07:56.574Z,6.36
2016-04-26T10:08:56.545Z,6.19
2016-04-26T10:09:56.517Z,6.1
2016-04-26T10:10:56.487Z,6.04
2016-04-26T10:11:56.460Z,6.04
2016-04-26T10:12:56.431Z,5.95
2016-04-26T10:13:56.403Z,6.04
2016-04-26T10:14:56.389Z,6
2016-04-26T10:15:56.345Z,5.98
2016-04-26T10:16:56.331Z,6.06
2016-04-26T10:17:56.289Z,6.13
2016-04-26T10:18:56.416Z,6.16
2016-04-26T10:19:57.528Z,6.18
2016-04-26T10:20:56.203Z,6.32
2016-04-26T10:21:56.174Z,6.32
2016-04-26T10:22:56.160Z,6.44
2016-04-26T10:23:56.133Z,6.41
2016-04-26T10:24:56.104Z,6.32
2016-04-26T10:25:56.090Z,6.35
2016-04-26T10:26:56.047Z,6.25
2016-04-26T10:27:56.019Z,6.38
2016-04-26T10:28:56.005Z,6.28
2016-04-26T10:29:55.961Z,6.35
2016-04-26T10:30:55.948Z,6.65
2016-04-26T10:31:55.920Z,6.63
2016-04-26T10:32:56.110Z,6.62
2016-04-26T10:33:55.972Z,6.72
2016-04-26T10:34:55.819Z,6.54
2016-04-26T10:35:55.790Z,6.54
2016-04-26T10:36:55.776Z,6.58
2016-04-26T10:37:55.749Z,6.58
2016-04-26T10:38:59.687Z,6.54
2016-04-26T10:39:55.738Z,6.51
2016-04-26T10:40:55.678Z,6.53
2016-04-26T10:41:55.634Z,6.41
2016-04-26T10:42:55.605Z,6.4
2016-04-26T10:43:55.592Z,6.35
2016-04-26T10:44:55.548Z,6.29
2016-04-26T10:45:55.520Z,5.96
2016-04-26T10:46:55.506Z,5.81
2016-04-26T10:47:55.494Z,5.75
2016-04-26T10:48:55.434Z,5.66
2016-04-26T10:49:55.420Z,5.49
2016-04-26T10:50:55.393Z,5.75
2016-04-26T10:51:55.348Z,6.13
2016-04-26T10:52:55.319Z,6.35
2016-04-26T10:53:55.306Z,6.5
2016-04-26T10:54:55.309Z,6.44
2016-04-26T10:55:55.249Z,6.69
2016-04-26T10:56:55.222Z,6.61
2016-04-26T10:57:55.192Z,6.65
2016-04-26T10:58:57.227Z,6.69
2016-04-26T10:59:55.135Z,6.72
2016-04-26T11:00:55.122Z,6.91
2016-04-26T11:01:55.094Z,6.99
2016-04-26T11:02:55.050Z,7.16
2016-04-26T11:04:00.944Z,7.37
2016-04-26T11:04:55.008Z,7.44
2016-04-26T11:05:54.979Z,7.32
2016-04-26T11:06:54.952Z,7.59
2016-04-26T11:07:54.938Z,7.69
2016-04-26T11:08:54.894Z,7.77
2016-04-26T11:09:54.882Z,7.72
2016-04-26T11:10:54.837Z,7.78
2016-04-26T11:11:54.824Z,7.67
2016-04-26T11:12:54.811Z,7.87
2016-04-26T11:13:56.424Z,7.89
2016-04-26T11:14:54.738Z,7.93
2016-04-26T11:15:54.710Z,8
2016-04-26T11:16:54.712Z,8.1
2016-04-26T11:17:55.418Z,8.02
2016-04-26T11:18:54.953Z,8.22
2016-04-26T11:19:54.642Z,8.15
2016-04-26T11:20:54.583Z,8.25
2016-04-26T11:21:54.570Z,8.35
2016-04-26T11:22:54.541Z,8.47
2016-04-26T11:23:54.497Z,8.45
2016-04-26T11:24:54.469Z,8.55
2016-04-26T11:25:54.472Z,8.51
2016-04-26T11:26:54.442Z,8.48
2016-04-26T11:27:54.398Z,8.3
2016-04-26T11:28:54.370Z,8.29
2016-04-26T11:29:54.358Z,8.35
2016-04-26T11:30:54.328Z,8.22
2016-04-26T11:31:54.300Z,8.17
2016-04-26T11:32:54.271Z,8.42
2016-04-26T11:33:54.008Z,8.66
2016-04-26T11:34:54.230Z,8.79
2016-04-26T11:35:54.202Z,8.63
2016-04-26T11:36:54.016Z,8.72
2016-04-26T11:37:54.143Z,8.71
2016-04-26T11:38:54.147Z,8.78
2016-04-26T11:39:54.102Z,8.76
2016-04-26T11:40:54.074Z,8.6
2016-04-26T11:41:54.030Z,8.54
2016-04-26T11:42:54.017Z,8.69
2016-04-26T11:43:54.003Z,8.72
2016-04-26T11:44:54.678Z,8.73
2016-04-26T11:45:53.947Z,8.71
2016-04-26T11:46:53.934Z,8.57
2016-04-26T11:47:53.906Z,8.71
2016-04-26T11:48:54.034Z,8.84
2016-04-26T11:49:53.848Z,8.86
2016-04-26T11:50:53.820Z,8.78
2016-04-26T11:51:53.791Z,8.68
2016-04-26T11:52:53.622Z,8.84
2016-04-26T11:53:53.734Z,8.81
2016-04-26T11:54:53.721Z,8.81
2016-04-26T11:55:53.693Z,8.81
2016-04-26T11:56:53.664Z,9.05
2016-04-26T11:57:53.635Z,9.21
2016-04-26T11:58:53.606Z,9.02
2016-04-26T11:59:53.594Z,8.9
2016-04-26T12:00:53.580Z,8.86
2016-04-26T12:01:53.536Z,8.81
2016-04-26T12:02:53.539Z,8.58
2016-04-26T12:03:53.183Z,8.69
2016-04-26T12:04:53.466Z,8.66
2016-04-26T12:05:53.438Z,8.5
2016-04-26T12:06:53.410Z,8.3
2016-04-26T12:07:53.397Z,8.17
2016-04-26T12:08:53.368Z,8.04
2016-04-26T12:09:53.340Z,7.96
2016-04-26T12:10:53.310Z,7.89
2016-04-26T12:11:53.299Z,7.87
2016-04-26T12:12:53.254Z,7.84
2016-04-26T12:13:53.240Z,7.93
2016-04-26T12:14:53.228Z,7.94
2016-04-26T12:15:53.215Z,7.97
2016-04-26T12:16:53.170Z,7.92
2016-04-26T12:17:53.143Z,7.81
2016-04-26T12:18:52.848Z,8.07
2016-04-26T12:19:53.085Z,7.94
2016-04-26T12:20:53.056Z,8.04
2016-04-26T12:21:53.043Z,8.02
2016-04-26T12:22:53.014Z,7.92
2016-04-26T12:23:52.986Z,7.93
2016-04-26T12:24:52.958Z,7.9
2016-04-26T12:25:52.929Z,8.11
2016-04-26T12:26:52.916Z,8.2
2016-04-26T12:27:52.872Z,8.12
2016-04-26T12:28:52.859Z,8.18
2016-04-26T12:29:52.878Z,8.37
2016-04-26T12:30:52.802Z,8.51
2016-04-26T12:31:52.774Z,8.45
2016-04-26T12:32:52.761Z,8.62
2016-04-26T12:33:52.732Z,8.88
2016-04-26T12:34:52.703Z,9.01
2016-04-26T12:35:52.690Z,8.99
2016-04-26T12:36:52.647Z,9.13
2016-04-26T12:37:52.618Z,9.13
2016-04-26T12:38:52.605Z,9.15
2016-04-26T12:39:52.577Z,9.16
2016-04-26T12:40:52.548Z,9.04
2016-04-26T12:41:52.519Z,9.05
2016-04-26T12:42:52.522Z,9.01
2016-04-26T12:43:52.478Z,9.23
2016-04-26T12:44:52.449Z,9.31
2016-04-26T12:45:52.436Z,9.15
2016-04-26T12:46:52.408Z,9.05
2016-04-26T12:47:52.380Z,9.13
2016-04-26T12:48:55.257Z,9.48
2016-04-26T12:49:52.337Z,9.1
2016-04-26T12:50:52.310Z,8.76
2016-04-26T12:51:52.296Z,8.63
2016-04-26T12:52:52.252Z,8.45
2016-04-26T12:53:52.254Z,8.17
2016-04-26T12:54:52.211Z,8.12
2016-04-26T12:55:52.198Z,8.11
2016-04-26T12:56:52.169Z,8.11
2016-04-26T12:57:52.172Z,7.72
2016-04-26T12:58:52.112Z,7.59
2016-04-26T12:59:52.084Z,7.44
2016-04-26T13:00:52.055Z,7.02
2016-04-26T13:01:52.042Z,6.79
2016-04-26T13:02:52.014Z,6.58
2016-04-26T13:03:53.047Z,6.38
2016-04-26T13:04:51.956Z,6.25
2016-04-26T13:05:51.944Z,6.09
2016-04-26T13:06:51.899Z,5.98
2016-04-26T13:07:51.886Z,5.88
2016-04-26T13:08:51.857Z,5.77
2016-04-26T13:09:51.830Z,5.48
2016-04-26T13:10:51.800Z,5.28
2016-04-26T13:11:51.771Z,5.23
2016-04-26T13:12:51.743Z,5.14
2016-04-26T13:13:51.716Z,5.25
2016-04-26T13:14:51.685Z,5.22
2016-04-26T13:15:51.657Z,5.07
2016-04-26T13:16:51.629Z,5.07
2016-04-26T13:17:51.606Z,4.98
2016-04-26T13:18:53.904Z,5.02
2016-04-26T13:19:51.471Z,5.04
2016-04-26T13:20:51.520Z,5.16